Muskoka Airport
CYQA : now visible

Airfield :











YOU CAN JOIN US ON...

 
LOGIN :

Register | Disclaimer

   EN    FR    IT 

 









Legend :    VFR   Marginal VFR   IFR   Intensive IFR   Very Intensive IFR
Visi :
Ceiling :
>= 8 km
>= 3000ft
5 to 8 km
1000 to 3000 ft
1500m to 5 km
500 to 1000 ft
800 to 1500m
200 to 500 ft
< 800m
< 200 ft
Symbols :   Thunderstorms  Fog  Heavy snow  Heavy precipitations  Wind > 20 kt






- Airport Elevation : 925 ft
- IATA code : YQA


CYQA - Muskoka

CURRENT METAR :
  • 190752Z AUTO 00000KT 9SM -SN OVC070 M09/M11 A2986 RMK SLP133

EXPIRED METARs :
  • 190724Z AUTO 15003KT 9SM FEW031 OVC075 M10/M11 A2986 RMK SLP133
  • 190709Z AUTO 13003KT 9SM -SN SCT031 OVC075 M10/M11 A2986 RMK SLP132
  • 190705Z AUTO 12003KT 9SM BKN031 OVC075 M10/M11 A2986 RMK SLP132
  • 190626Z AUTO 00000KT 6SM -SN OVC031 M11/M12 A2986 RMK SLP132
  • 190616Z AUTO 00000KT 4SM -SN OVC031 M11/M12 A2986 RMK SLP132
  • 190600Z AUTO 00000KT 9SM -SN BKN033 OVC045 M11/M12 A2986 RMK SLP132
  • 190551Z AUTO 17002KT 9SM -SN SCT033 BKN045 OVC075 M11/M13 A2986 RMK SLP133
  • 190535Z AUTO 00000KT 9SM BKN045 BKN075 OVC110 M12/M13 A2986 RMK SLP133
  • 190500Z AUTO VRB02KT 9SM -SN BKN038 OVC110 M12/M13 A2986 RMK SLP134

Expired Forecast.
CZYZ FIR / North America



MET'MAP, your aeronautical weather chart ! - Copyright ORBIFLY December 2007 - Disclaimer

ORBIFLY MET'MAP TEAM :

Programming & Development : Alexandra Zaïnal
Concept & original design : Baudouin d'Aumeries
Assistance for programming : Marc-Olivier Méhu
Technical & hardware support : Manuel Goepfert

Contact : metmap@orbifly.com




SOURCES & CREDITS :

   NOAA       Earth
Advisory